Главная страница
METAR-TAF:

METAR-TAF

Аэропорты :

Кейптаун, Южно-Африканская Республика

широта: 33-59S, долгота: 018-36E, высота над уровнем моря: 42 м

Текущие метеонаблюдения

Эта сводка был подготовлена 43 минут назад, в 21:00 UTC
Ветер 5 Узел от южный-юго-западный
Температура 16°C
Влажность 51%
Давление 1024 hPa
Видимость 10 км и более
Нет облачности ниже 1500 м, и нет кучево-дождевой облачности

METAR: FACT 202100Z 20005KT CAVOK 16/06 Q1024 NOSIG

Время: 23:43 (21:43 UTC)

Прогноз

Эта сводка был подготовлена 5 часа и 43 минут назад, в 16:00 UTC
Прогноз действительный с 20-го 18 UTC до 21-го 24 UTC
Ветер 12 Узел от восточно-юго-восточный
Видимость 10 км и более
Нет облачности ниже 1500 м, и нет кучево-дождевой облачности
изменения
С 21-го 00 UTC до 21-го 02 UTC
Ветер 2 Узел переменных направлений
изменения
С 21-го 10 UTC до 21-го 12 UTC
Ветер 12 Узел от юго-юго-восточный

TAF: FACT 201600Z 2018/2124 12012KT CAVOK BECMG 2100/2102 VRB02KT BECMG 2110/2112 15012KT TX31/2112Z TN15/2104Z

Метеонаблюдения и прогнозы для более 4000 аэропортов (сводки METAR и TAF).

Имеющиеся станции представлены на карте желтыми и красными точками.

Чтобы увидеть название станции, наведите на нее мышь.

Затем щелкните, чтобы увидеть метеонаблюдения и метеопрогнозы.

Управление картой: чтобы увеличить масштаб, щелкните зеленые кнопки с черным крестиком; чтобы уменьшить масштаб, щелкните зеленую кнопку с тире; для просмотра соседних карт щелкайте зеленые стрелки.


METAR-TAF: